createdAt,value
2019-02-22T00:03:57.299Z,77.39
2019-02-22T00:08:00.130Z,77.28
2019-02-22T00:12:03.149Z,77.67
2019-02-22T00:16:05.864Z,78.68
2019-02-22T00:20:09.026Z,78.34
2019-02-22T00:24:11.664Z,78.40
2019-02-22T00:28:14.472Z,78.66
2019-02-22T00:32:17.042Z,78.61
2019-02-22T00:36:21.150Z,79.02
2019-02-22T00:40:24.981Z,79.10
2019-02-22T00:44:28.767Z,79.04
2019-02-22T00:48:31.277Z,78.99
2019-02-22T00:52:34.107Z,79.12
2019-02-22T00:56:36.822Z,80.09
2019-02-22T01:00:39.548Z,79.82
2019-02-22T01:04:42.139Z,80.05
2019-02-22T01:08:44.897Z,80.37
2019-02-22T01:12:47.871Z,80.32
2019-02-22T01:16:51.609Z,80.21
2019-02-22T01:20:54.844Z,80.30
2019-02-22T01:24:57.922Z,80.73
2019-02-22T01:29:00.713Z,80.42
2019-02-22T01:33:03.384Z,80.51
2019-02-22T01:37:06.194Z,80.44
2019-02-22T01:41:08.964Z,79.61
2019-02-22T01:45:11.690Z,80.04
2019-02-22T01:49:14.357Z,80.22
2019-02-22T01:53:16.979Z,79.88
2019-02-22T01:57:19.627Z,79.92
2019-02-22T02:01:22.187Z,80.09
2019-02-22T02:05:24.853Z,80.24
2019-02-22T02:09:27.435Z,79.96
2019-02-22T02:13:30.152Z,80.45
2019-02-22T02:17:32.827Z,80.67
2019-02-22T02:21:35.609Z,81.34
2019-02-22T02:25:38.302Z,81.20
2019-02-22T02:29:41.174Z,81.71
2019-02-22T02:33:43.908Z,80.60
2019-02-22T02:37:48.358Z,80.83
2019-02-22T02:41:50.926Z,80.64
2019-02-22T02:45:53.736Z,80.21
2019-02-22T02:49:56.384Z,80.11
2019-02-22T02:53:59.059Z,79.50
2019-02-22T02:58:01.690Z,79.82
2019-02-22T03:02:08.678Z,79.89
2019-02-22T03:06:32.982Z,80.83
2019-02-22T03:10:35.654Z,80.26
2019-02-22T03:14:38.161Z,80.40
2019-02-22T03:18:40.839Z,80.43
2019-02-22T03:22:43.545Z,80.81
2019-02-22T03:26:46.223Z,80.29
2019-02-22T03:30:48.894Z,81.08
2019-02-22T03:34:51.496Z,80.53
2019-02-22T03:38:56.044Z,81.26
2019-02-22T03:42:58.770Z,81.30
2019-02-22T03:47:01.427Z,81.26
2019-02-22T03:51:04.191Z,81.60
2019-02-22T03:55:07.258Z,81.79
2019-02-22T03:59:10.127Z,81.49
2019-02-22T04:03:12.890Z,81.82
2019-02-22T04:07:15.545Z,81.56
2019-02-22T04:11:19.130Z,82.02
2019-02-22T04:15:21.889Z,82.30
2019-02-22T04:19:24.491Z,82.40
2019-02-22T04:23:27.292Z,82.47
2019-02-22T04:27:29.999Z,82.83
2019-02-22T04:31:33.856Z,82.96
2019-02-22T04:35:37.917Z,83.13
2019-02-22T04:39:41.171Z,82.99
2019-02-22T04:43:43.968Z,82.84
2019-02-22T04:47:46.642Z,83.04
2019-02-22T04:51:49.376Z,82.80
2019-02-22T04:55:52.150Z,83.20
2019-02-22T04:59:54.846Z,82.96
2019-02-22T05:03:57.505Z,83.17
2019-02-22T05:08:00.241Z,83.69
2019-02-22T05:12:10.930Z,83.07
2019-02-22T05:16:09.420Z,82.88
2019-02-22T05:20:12.197Z,83.04
2019-02-22T05:24:14.721Z,83.02
2019-02-22T05:28:18.886Z,82.91
2019-02-22T05:32:21.601Z,83.09
2019-02-22T05:36:24.511Z,83.07
2019-02-22T05:40:27.463Z,83.23
2019-02-22T05:44:32.821Z,83.11
2019-02-22T05:48:38.784Z,83.12
2019-02-22T05:52:41.824Z,83.48
2019-02-22T05:56:44.413Z,83.25
2019-02-22T06:00:48.498Z,83.17
2019-02-22T06:04:51.040Z,83.15
2019-02-22T06:08:53.813Z,83.14
2019-02-22T06:12:57.329Z,83.16
2019-02-22T06:17:00.198Z,82.71
2019-02-22T06:21:04.124Z,82.71
2019-02-22T06:25:09.723Z,82.67
2019-02-22T06:29:12.513Z,82.79
2019-02-22T06:33:15.156Z,82.51
2019-02-22T06:37:18.721Z,82.28
2019-02-22T06:41:21.782Z,82.19
2019-02-22T06:45:24.341Z,81.75
2019-02-22T06:49:26.981Z,82.25
2019-02-22T06:53:29.789Z,81.63
2019-02-22T06:57:32.477Z,80.80
2019-02-22T07:01:35.178Z,80.19
2019-02-22T07:05:38.037Z,80.14
2019-02-22T07:09:40.786Z,79.98
2019-02-22T07:13:43.443Z,79.61
2019-02-22T07:17:46.150Z,79.84
2019-02-22T07:21:52.465Z,78.91
2019-02-22T07:25:53.092Z,79.12
2019-02-22T07:29:55.825Z,78.28
2019-02-22T07:33:58.247Z,78.17
2019-02-22T07:38:01.037Z,77.94
2019-02-22T07:42:03.695Z,77.57
2019-02-22T07:46:07.913Z,77.45
2019-02-22T07:50:12.093Z,77.02
2019-02-22T07:54:14.872Z,76.98
2019-02-22T07:58:17.529Z,76.87
2019-02-22T08:02:20.239Z,76.28
2019-02-22T08:06:22.849Z,76.08
2019-02-22T08:10:26.370Z,75.46
2019-02-22T08:14:29.117Z,75.29
2019-02-22T08:18:31.796Z,74.87
2019-02-22T08:22:34.560Z,74.55
2019-02-22T08:26:37.426Z,74.37
2019-02-22T08:30:40.206Z,74.28
2019-02-22T08:34:45.732Z,73.80
2019-02-22T08:38:47.441Z,73.00
2019-02-22T08:42:50.010Z,72.79
2019-02-22T08:46:52.612Z,72.48
2019-02-22T08:50:55.302Z,71.88
2019-02-22T08:54:58.144Z,71.32
2019-02-22T08:59:00.946Z,71.38
2019-02-22T09:03:03.571Z,70.07
2019-02-22T09:07:06.367Z,70.25
2019-02-22T09:11:09.047Z,69.68
2019-02-22T09:15:11.906Z,68.28
2019-02-22T09:19:14.585Z,68.30
2019-02-22T09:23:17.358Z,67.18
2019-02-22T09:27:20.209Z,67.92
2019-02-22T09:31:23.003Z,67.42
2019-02-22T09:35:25.833Z,66.72
2019-02-22T09:39:28.603Z,66.27
2019-02-22T09:43:31.471Z,65.35
2019-02-22T09:47:36.007Z,65.33
2019-02-22T09:51:41.164Z,64.02
2019-02-22T09:55:42.846Z,64.41
2019-02-22T09:59:45.351Z,64.57
2019-02-22T10:03:49.227Z,65.84
2019-02-22T10:07:51.931Z,66.50
2019-02-22T10:11:54.763Z,66.38
2019-02-22T10:15:57.418Z,66.37
2019-02-22T10:20:01.603Z,66.65
2019-02-22T10:24:05.351Z,66.55
2019-02-22T10:28:17.175Z,66.32
2019-02-22T10:32:12.367Z,65.18
2019-02-22T10:36:15.072Z,64.12
2019-02-22T10:40:19.571Z,64.54
2019-02-22T10:44:22.273Z,64.41
2019-02-22T10:48:24.807Z,64.40
2019-02-22T10:52:27.791Z,64.09
2019-02-22T10:56:30.532Z,61.26
2019-02-22T11:00:33.246Z,55.63
2019-02-22T11:04:35.960Z,56.32
2019-02-22T11:08:38.746Z,58.96
2019-02-22T11:12:41.485Z,59.99
2019-02-22T11:16:44.150Z,58.99
2019-02-22T11:20:46.760Z,61.10
2019-02-22T11:24:49.486Z,55.24
2019-02-22T11:28:54.664Z,51.58
2019-02-22T11:32:56.889Z,50.59
2019-02-22T11:36:59.547Z,51.47
2019-02-22T11:41:02.201Z,54.38
2019-02-22T11:45:05.075Z,54.98
2019-02-22T11:49:17.508Z,56.24
2019-02-22T11:53:25.071Z,55.70
2019-02-22T11:57:27.626Z,56.83
2019-02-22T12:01:30.154Z,57.08
2019-02-22T12:05:32.571Z,54.74
2019-02-22T12:09:35.413Z,48.24
2019-02-22T12:13:38.009Z,50.05
2019-02-22T12:17:40.365Z,51.64
2019-02-22T12:21:42.807Z,52.94
2019-02-22T12:25:45.176Z,53.63
2019-02-22T12:29:49.012Z,52.53
2019-02-22T12:33:51.431Z,53.02
2019-02-22T12:37:57.114Z,51.16
2019-02-22T12:41:59.621Z,49.04
2019-02-22T12:46:02.310Z,47.58
2019-02-22T12:50:04.875Z,44.88
2019-02-22T12:54:09.846Z,45.19
2019-02-22T12:58:12.395Z,44.16
2019-02-22T13:02:14.834Z,45.51
2019-02-22T13:06:17.186Z,47.74
2019-02-22T13:10:19.596Z,47.52
2019-02-22T13:14:22.081Z,47.94
2019-02-22T13:18:24.501Z,47.64
2019-02-22T13:22:27.121Z,47.62
2019-02-22T13:26:30.787Z,48.22
2019-02-22T13:30:33.246Z,47.53
2019-02-22T13:34:35.645Z,47.43
2019-02-22T13:38:39.590Z,47.53
2019-02-22T13:42:42.195Z,49.42
2019-02-22T13:46:44.603Z,47.50
2019-02-22T13:50:47.200Z,46.34
2019-02-22T13:54:49.805Z,48.98
2019-02-22T13:58:52.288Z,48.24
2019-02-22T14:02:56.058Z,49.00
2019-02-22T14:06:58.493Z,48.48
2019-02-22T14:11:00.934Z,46.95
2019-02-22T14:15:03.372Z,47.54
2019-02-22T14:19:05.948Z,47.62
2019-02-22T14:23:08.602Z,46.34
2019-02-22T14:27:11.240Z,47.54
2019-02-22T14:31:13.683Z,48.64
2019-02-22T14:35:16.377Z,48.07
2019-02-22T14:39:19.070Z,47.43
2019-02-22T14:43:21.661Z,49.05
2019-02-22T14:47:24.362Z,47.37
2019-02-22T14:51:27.044Z,49.35
2019-02-22T14:55:29.766Z,50.17
2019-02-22T14:59:32.514Z,49.57
2019-02-22T15:03:36.032Z,50.67
2019-02-22T15:07:40.274Z,50.81
2019-02-22T15:11:43.207Z,51.73
2019-02-22T15:16:10.832Z,51.40
2019-02-22T15:20:13.512Z,51.91
2019-02-22T15:24:18.282Z,52.00
2019-02-22T15:28:21.063Z,52.83
2019-02-22T15:32:23.786Z,52.43
2019-02-22T15:36:26.825Z,52.27
2019-02-22T15:40:29.494Z,53.76
2019-02-22T15:44:32.591Z,54.55
2019-02-22T15:48:35.347Z,54.67
2019-02-22T15:52:38.139Z,54.39
2019-02-22T15:56:40.803Z,55.54
2019-02-22T16:00:43.411Z,55.31
2019-02-22T16:05:04.753Z,56.84
2019-02-22T16:09:09.435Z,56.78
2019-02-22T16:13:13.511Z,57.08
2019-02-22T16:17:16.266Z,56.99
2019-02-22T16:21:18.802Z,58.13
2019-02-22T16:25:21.507Z,58.14
2019-02-22T16:29:24.292Z,59.91
2019-02-22T16:33:27.062Z,58.86
2019-02-22T16:37:29.657Z,58.39
2019-02-22T16:41:32.403Z,57.70
2019-02-22T16:45:35.117Z,57.51
2019-02-22T16:49:37.875Z,57.79
2019-02-22T16:53:40.598Z,57.18
2019-02-22T16:57:43.213Z,57.61
2019-02-22T17:01:45.703Z,57.81
2019-02-22T17:05:48.385Z,56.51
2019-02-22T17:09:51.199Z,56.32
2019-02-22T17:13:53.922Z,55.83
2019-02-22T17:17:56.633Z,54.64
2019-02-22T17:21:59.411Z,54.50
2019-02-22T17:26:02.140Z,53.42
2019-02-22T17:30:04.831Z,52.75
2019-02-22T17:34:07.430Z,52.10
2019-02-22T17:38:10.129Z,52.19
2019-02-22T17:42:12.649Z,53.47
2019-02-22T17:46:15.284Z,53.64
2019-02-22T17:50:18.120Z,54.83
2019-02-22T17:54:20.893Z,55.30
2019-02-22T17:58:24.627Z,55.28
2019-02-22T18:02:29.878Z,56.30
2019-02-22T18:06:32.564Z,56.41
2019-02-22T18:10:37.060Z,57.19
2019-02-22T18:14:39.734Z,57.17
2019-02-22T18:18:42.469Z,57.18
2019-02-22T18:22:45.053Z,57.93
2019-02-22T18:26:47.744Z,57.93
2019-02-22T18:30:50.239Z,58.04
2019-02-22T18:34:52.914Z,58.91
2019-02-22T18:38:55.634Z,59.18
2019-02-22T18:42:58.910Z,60.55
2019-02-22T18:47:01.403Z,60.63
2019-02-22T18:51:04.173Z,61.76
2019-02-22T18:55:06.916Z,62.34
2019-02-22T18:59:09.619Z,63.08
2019-02-22T19:03:12.288Z,63.45
2019-02-22T19:07:15.254Z,63.41
2019-02-22T19:11:19.890Z,64.43
2019-02-22T19:15:22.681Z,64.97
2019-02-22T19:19:25.300Z,65.66
2019-02-22T19:23:28.075Z,66.44
2019-02-22T19:27:30.778Z,66.87
2019-02-22T19:31:34.577Z,67.49
2019-02-22T19:35:37.287Z,67.52
2019-02-22T19:39:40.271Z,67.61
2019-02-22T19:43:42.988Z,68.06
2019-02-22T19:47:45.802Z,68.91
2019-02-22T19:51:48.663Z,68.21
2019-02-22T19:55:51.445Z,68.32
2019-02-22T19:59:54.092Z,68.86
2019-02-22T20:03:56.923Z,68.77
2019-02-22T20:07:59.842Z,68.77
2019-02-22T20:12:02.782Z,69.79
2019-02-22T20:16:06.974Z,69.39
2019-02-22T20:20:12.502Z,70.28
2019-02-22T20:24:15.272Z,69.70
2019-02-22T20:28:18.049Z,71.54
2019-02-22T20:32:20.830Z,71.75
2019-02-22T20:36:28.578Z,72.33
2019-02-22T20:40:28.217Z,72.22
2019-02-22T20:44:31.018Z,73.12
2019-02-22T20:48:34.706Z,72.74
2019-02-22T20:52:37.494Z,72.75
2019-02-22T20:56:40.014Z,74.07
2019-02-22T21:00:42.799Z,74.01
2019-02-22T21:04:45.723Z,73.97
2019-02-22T21:08:48.367Z,75.26
2019-02-22T21:12:51.241Z,75.78
2019-02-22T21:16:53.925Z,74.74
2019-02-22T21:20:56.745Z,75.32
2019-02-22T21:24:59.512Z,75.75
2019-02-22T21:29:02.055Z,75.72
2019-02-22T21:33:04.837Z,76.09
2019-02-22T21:37:08.563Z,76.11
2019-02-22T21:41:11.262Z,75.83
2019-02-22T21:45:14.035Z,76.25
2019-02-22T21:49:16.759Z,75.83
2019-02-22T21:53:19.325Z,76.41
2019-02-22T21:57:22.099Z,76.18
2019-02-22T22:01:24.614Z,75.94
2019-02-22T22:05:27.294Z,76.06
2019-02-22T22:09:31.322Z,76.77
2019-02-22T22:13:34.811Z,76.29
2019-02-22T22:17:37.410Z,77.04
2019-02-22T22:21:40.116Z,76.76
2019-02-22T22:25:42.825Z,77.41
2019-02-22T22:29:45.668Z,76.94
2019-02-22T22:33:48.190Z,76.98
2019-02-22T22:37:50.908Z,77.34
2019-02-22T22:41:53.638Z,77.29
2019-02-22T22:45:56.401Z,77.48
2019-02-22T22:49:59.106Z,77.66
2019-02-22T22:54:01.885Z,77.52
2019-02-22T22:58:04.450Z,77.53
2019-02-22T23:02:07.254Z,77.35
2019-02-22T23:06:11.793Z,77.48
2019-02-22T23:10:14.706Z,77.97
2019-02-22T23:14:17.848Z,77.75
2019-02-22T23:18:20.800Z,78.26
2019-02-22T23:22:23.845Z,78.15
2019-02-22T23:26:26.429Z,77.81
2019-02-22T23:30:29.030Z,77.85
2019-02-22T23:34:31.682Z,78.25
2019-02-22T23:38:34.327Z,78.51
2019-02-22T23:42:37.177Z,78.92
2019-02-22T23:46:39.695Z,80.06
2019-02-22T23:50:42.500Z,80.29
2019-02-22T23:54:45.128Z,82.23
2019-02-22T23:58:47.948Z,81.95
